Time;durP1;ratioP1;P1;durP2;ratioP2;P2;SDS_P1;SDS_P2;PMS_P1;PMS_P2;Temp;Humidity;BMP_temperature;BMP_pressure;BME280_temperature;BME280_humidity;BME280_pressure;Samples;Min_cycle;Max_cycle;Signal;HPM_P1;HPM_P2
2023/05/05 00:01:24;;;;;;;14.07;7.33;;;9.60;71.50;;;;;;6168539;23;20016;-92
2023/05/05 00:03:50;;;;;;;17.25;6.95;;;9.60;71.50;;;;;;6200275;22;20507;-92
2023/05/05 00:06:16;;;;;;;16.63;6.50;;;9.60;71.50;;;;;;6195660;23;20051;-91
2023/05/05 00:08:50;;;;;;;15.37;7.03;;;9.60;71.60;;;;;;6162681;23;20028;-92
2023/05/05 00:11:16;;;;;;;15.53;6.53;;;9.50;71.70;;;;;;6169272;23;20082;-93
2023/05/05 00:13:42;;;;;;;13.53;6.70;;;9.50;71.50;;;;;;6192185;22;20450;-91
2023/05/05 00:16:08;;;;;;;13.07;6.77;;;9.50;71.50;;;;;;6166244;23;20442;-92
2023/05/05 00:18:34;;;;;;;15.20;6.67;;;9.50;71.40;;;;;;6187551;23;20074;-91
2023/05/05 00:21:00;;;;;;;14.40;7.23;;;9.50;71.40;;;;;;6194085;23;20016;-91
2023/05/05 00:23:28;;;;;;;13.97;6.80;;;9.50;71.40;;;;;;6192362;22;20051;-91
2023/05/05 00:25:54;;;;;;;14.53;6.67;;;9.50;71.30;;;;;;6193769;23;20085;-90
2023/05/05 00:28:22;;;;;;;12.27;7.00;;;9.50;71.20;;;;;;6186347;23;20021;-91
2023/05/05 00:30:48;;;;;;;9.90;6.30;;;9.50;71.30;;;;;;6169747;23;20082;-91
2023/05/05 00:33:23;;;;;;;10.80;6.80;;;9.50;71.20;;;;;;6191803;22;20024;-92
2023/05/05 00:35:49;;;;;;;11.13;6.57;;;9.50;71.20;;;;;;6168813;23;20012;-91
2023/05/05 00:38:17;;;;;;;16.57;6.40;;;9.50;71.30;;;;;;6184732;23;20469;-91
2023/05/05 00:40:43;;;;;;;15.13;6.00;;;9.50;71.10;;;;;;6194405;23;20016;-92
2023/05/05 00:43:09;;;;;;;10.37;6.03;;;9.50;71.10;;;;;;6191799;23;20016;-91
2023/05/05 00:45:55;;;;;;;17.40;6.70;;;9.50;71.00;;;;;;6187555;23;20017;-93
2023/05/05 00:48:23;;;;;;;11.67;6.50;;;9.60;70.90;;;;;;6208628;23;20016;-92
2023/05/05 00:50:52;;;;;;;9.95;6.35;;;9.60;70.90;;;;;;6219827;23;20051;-91
2023/05/05 00:53:31;;;;;;;11.97;6.03;;;9.60;70.90;;;;;;6156347;23;20020;-92
2023/05/05 00:56:07;;;;;;;17.17;6.43;;;9.70;70.80;;;;;;6195868;23;20020;-91
2023/05/05 00:58:35;;;;;;;12.73;6.53;;;9.70;70.70;;;;;;6211694;23;20697;-91
2023/05/05 01:01:04;;;;;;;17.30;6.20;;;9.60;70.80;;;;;;6219005;23;20016;-93
2023/05/05 01:03:34;;;;;;;15.57;6.73;;;9.60;70.70;;;;;;6216363;22;20327;-91
2023/05/05 01:06:24;;;;;;;17.97;5.83;;;9.60;70.70;;;;;;6193764;23;20023;-90
2023/05/05 01:09:10;;;;;;;12.10;6.90;;;9.60;70.60;;;;;;6213145;23;20044;-91
2023/05/05 01:11:50;;;;;;;12.63;6.40;;;9.60;70.70;;;;;;6217841;23;20035;-91
2023/05/05 01:14:21;;;;;;;11.87;6.70;;;9.60;70.70;;;;;;6216943;22;20031;-90
2023/05/05 01:17:00;;;;;;;12.88;7.10;;;9.50;70.80;;;;;;6210342;23;20012;-91
2023/05/05 01:20:03;;;;;;;12.97;7.30;;;9.50;70.90;;;;;;6216204;23;20372;-91
2023/05/05 01:22:46;;;;;;;11.80;6.63;;;9.40;71.20;;;;;;6230404;22;20019;-91
2023/05/05 01:25:27;;;;;;;13.67;6.80;;;9.40;71.10;;;;;;6193589;23;20023;-90
2023/05/05 01:28:02;;;;;;;18.73;7.70;;;9.30;71.10;;;;;;6208402;23;20048;-90
2023/05/05 01:30:55;;;;;;;13.30;6.77;;;9.20;71.30;;;;;;6218749;23;20020;-91
2023/05/05 01:33:28;;;;;;;16.33;6.80;;;9.20;71.40;;;;;;6216813;22;20020;-92
2023/05/05 01:36:04;;;;;;;11.73;6.87;;;9.20;71.30;;;;;;6218528;23;20016;-92
2023/05/05 01:38:43;;;;;;;13.20;7.10;;;9.20;71.50;;;;;;6209777;23;20019;-92
2023/05/05 01:41:18;;;;;;;18.70;7.20;;;9.10;71.50;;;;;;6219497;23;20023;-91
2023/05/05 01:43:48;;;;;;;11.67;6.70;;;9.00;71.50;;;;;;6218265;23;20021;-90
2023/05/05 01:46:20;;;;;;;14.77;7.20;;;9.00;71.40;;;;;;6192452;23;20043;-91
2023/05/05 01:48:47;;;;;;;12.90;7.30;;;9.00;71.40;;;;;;6188124;23;20051;-90
2023/05/05 01:51:16;;;;;;;22.57;7.53;;;9.00;71.60;;;;;;6193800;23;20024;-91
2023/05/05 01:53:46;;;;;;;12.07;7.07;;;9.00;71.60;;;;;;6191445;22;20028;-91
2023/05/05 01:56:17;;;;;;;10.73;6.00;;;9.00;71.60;;;;;;6191780;23;20024;-91
2023/05/05 01:58:46;;;;;;;;;;;9.00;71.70;;;;;;6192723;23;20024;-91
2023/05/05 02:01:17;;;;;;;21.03;7.43;;;9.00;72.20;;;;;;6245032;23;19915;-91
2023/05/05 02:03:47;;;;;;;16.08;7.13;;;8.90;71.70;;;;;;6191528;22;20016;-92
2023/05/05 02:06:15;;;;;;;18.93;8.00;;;8.90;71.90;;;;;;6191762;23;20024;-92
2023/05/05 02:08:42;;;;;;;14.90;7.10;;;8.90;71.80;;;;;;6186761;23;20100;-91
2023/05/05 02:11:10;;;;;;;19.23;7.13;;;8.90;71.80;;;;;;6193101;23;20127;-90
2023/05/05 02:13:38;;;;;;;14.83;7.40;;;8.90;71.90;;;;;;6191696;22;20020;-91
2023/05/05 02:16:11;;;;;;;13.93;7.57;;;8.90;71.80;;;;;;6218062;23;20031;-92
2023/05/05 02:18:37;;;;;;;12.53;7.13;;;8.90;71.90;;;;;;6185036;23;20028;-92
2023/05/05 02:21:04;;;;;;;12.70;6.90;;;8.90;71.90;;;;;;6193400;23;20016;-91
2023/05/05 02:23:30;;;;;;;13.13;7.00;;;9.00;71.80;;;;;;6191193;22;20467;-90
2023/05/05 02:26:03;;;;;;;13.73;7.03;;;9.00;71.80;;;;;;6193261;23;20023;-92
2023/05/05 02:28:47;;;;;;;13.00;7.00;;;9.00;71.80;;;;;;6185721;23;20046;-92
2023/05/05 02:31:15;;;;;;;19.27;6.97;;;9.00;71.80;;;;;;6192277;23;20016;-90
2023/05/05 02:33:43;;;;;;;14.87;7.40;;;9.00;71.70;;;;;;6166390;23;20020;-92
2023/05/05 02:36:18;;;;;;;11.20;6.20;;;9.00;71.60;;;;;;6192106;23;20095;-93
2023/05/05 02:38:46;;;;;;;15.80;6.93;;;9.00;71.60;;;;;;6188968;23;20051;-91
2023/05/05 02:41:17;;;;;;;15.43;7.00;;;9.10;71.60;;;;;;6192642;23;20016;-91
2023/05/05 02:43:48;;;;;;;11.52;6.90;;;9.20;71.40;;;;;;6177547;23;20107;-91
2023/05/05 02:46:23;;;;;;;13.60;7.23;;;9.20;71.50;;;;;;6192025;23;20078;-93
2023/05/05 02:48:49;;;;;;;13.90;6.97;;;9.20;71.30;;;;;;6188388;23;20044;-92
2023/05/05 02:51:17;;;;;;;15.20;7.13;;;9.20;71.40;;;;;;6192673;23;20191;-94
2023/05/05 02:53:43;;;;;;;16.60;7.53;;;9.20;71.20;;;;;;6142483;23;20792;-91
2023/05/05 02:56:17;;;;;;;13.93;7.40;;;9.20;71.20;;;;;;6217397;23;20052;-93
2023/05/05 02:59:12;;;;;;;14.70;6.60;;;9.20;71.30;;;;;;6208110;22;20079;-92
2023/05/05 03:02:06;;;;;;;13.20;6.40;;;9.10;71.20;;;;;;6213923;22;20011;-91
2023/05/05 03:04:40;;;;;;;10.80;6.50;;;9.10;71.20;;;;;;6220487;22;20035;-93
2023/05/05 03:07:13;;;;;;;16.80;6.80;;;9.20;71.20;;;;;;6214700;22;20011;-91
2023/05/05 03:09:54;;;;;;;16.73;7.23;;;9.10;71.20;;;;;;6222694;22;20095;-92
2023/05/05 03:12:24;;;;;;;;;;;9.10;71.10;;;;;;6220908;22;20094;-91
2023/05/05 03:14:53;;;;;;;11.63;7.20;;;9.10;71.10;;;;;;6223187;22;19922;-91
2023/05/05 03:17:20;;;;;;;12.60;6.87;;;9.00;71.10;;;;;;6214481;22;20050;-92
2023/05/05 03:19:48;;;;;;;13.27;7.30;;;9.10;71.10;;;;;;6221005;22;20098;-92
2023/05/05 03:22:19;;;;;;;16.37;6.97;;;9.00;71.10;;;;;;6219926;22;20507;-91
2023/05/05 03:24:48;;;;;;;;;;;9.00;71.00;;;;;;6223468;22;20022;-92
2023/05/05 03:27:19;;;;;;;11.23;7.10;;;9.00;71.30;;;;;;6211764;22;19922;-91
2023/05/05 03:29:53;;;;;;;12.07;7.00;;;9.00;71.20;;;;;;6221915;22;20093;-92
2023/05/05 03:32:19;;;;;;;14.20;6.80;;;9.00;71.10;;;;;;6196194;22;20070;-91
2023/05/05 03:34:45;;;;;;;13.40;6.90;;;8.90;71.20;;;;;;6173206;22;20019;-91
2023/05/05 03:40:56;;;;;;;14.63;6.60;;;9.00;71.30;;;;;;6127282;23;20443;-92
2023/05/05 03:43:36;;;;;;;14.23;7.00;;;9.00;71.10;;;;;;6144586;22;20019;-92
2023/05/05 03:46:02;;;;;;;14.10;6.53;;;9.00;71.20;;;;;;6196466;22;20091;-92
2023/05/05 03:48:34;;;;;;;14.97;7.23;;;9.00;71.10;;;;;;6214711;22;20054;-91
2023/05/05 03:51:05;;;;;;;14.67;7.13;;;9.00;71.10;;;;;;6225585;22;20020;-91
2023/05/05 03:53:40;;;;;;;13.47;6.90;;;9.00;71.20;;;;;;6219509;22;20032;-91
2023/05/05 03:56:12;;;;;;;11.20;6.63;;;9.00;71.20;;;;;;6247833;22;20032;-92
2023/05/05 03:58:38;;;;;;;11.77;6.63;;;9.10;71.20;;;;;;6214821;22;20442;-92
2023/05/05 04:01:04;;;;;;;12.27;6.57;;;9.10;71.30;;;;;;6247511;22;20055;-91
2023/05/05 04:03:30;;;;;;;14.37;7.27;;;9.00;71.40;;;;;;6236172;22;20469;-91
2023/05/05 04:05:56;;;;;;;10.43;6.67;;;9.10;71.40;;;;;;6247959;22;20022;-91
2023/05/05 04:08:22;;;;;;;11.53;6.00;;;9.10;71.50;;;;;;6226639;22;20086;-91
2023/05/05 04:10:50;;;;;;;12.97;7.03;;;9.00;71.50;;;;;;6222865;22;20016;-93
2023/05/05 04:13:19;;;;;;;12.27;7.20;;;9.10;71.50;;;;;;6244617;22;20438;-92
2023/05/05 04:15:47;;;;;;;10.53;6.90;;;9.10;71.80;;;;;;6223370;22;20051;-92
2023/05/05 04:18:17;;;;;;;15.03;7.40;;;9.20;71.70;;;;;;6238986;22;20027;-91
2023/05/05 04:20:45;;;;;;;10.47;7.10;;;9.20;71.80;;;;;;6222074;22;20023;-92
2023/05/05 04:23:11;;;;;;;13.57;6.67;;;9.20;71.60;;;;;;6220214;22;20023;-91
2023/05/05 04:25:37;;;;;;;15.60;7.03;;;9.20;71.60;;;;;;6222238;22;20030;-91
2023/05/05 04:28:06;;;;;;;10.93;6.70;;;9.20;72.20;;;;;;6211062;22;20015;-91
2023/05/05 04:30:32;;;;;;;12.87;6.70;;;9.20;72.30;;;;;;6249397;22;20058;-90
2023/05/05 04:32:58;;;;;;;15.83;7.00;;;9.20;72.30;;;;;;6222696;22;20016;-90
2023/05/05 04:35:23;;;;;;;16.13;7.60;;;9.20;72.20;;;;;;6249285;22;20022;-89
2023/05/05 04:37:49;;;;;;;12.73;8.13;;;9.20;72.30;;;;;;6214901;22;20051;-90
2023/05/05 04:40:15;;;;;;;16.10;8.57;;;9.10;72.40;;;;;;6198815;22;20027;-91
2023/05/05 04:42:41;;;;;;;19.27;9.17;;;9.00;72.50;;;;;;6222225;22;20034;-90
2023/05/05 04:45:08;;;;;;;16.47;8.97;;;9.00;73.70;;;;;;6223501;22;20078;-89
2023/05/05 04:47:38;;;;;;;15.20;8.33;;;9.00;74.10;;;;;;6238770;22;20023;-89
2023/05/05 04:50:05;;;;;;;19.52;8.98;;;8.90;74.00;;;;;;6223436;22;20026;-90
2023/05/05 04:52:30;;;;;;;12.63;8.77;;;8.90;74.50;;;;;;6246527;22;20820;-89
2023/05/05 04:54:56;;;;;;;15.87;9.00;;;8.80;74.70;;;;;;6223209;22;20059;-88
2023/05/05 04:57:22;;;;;;;14.40;8.67;;;8.80;74.70;;;;;;6237623;22;20043;-89
2023/05/05 04:59:48;;;;;;;16.57;9.77;;;8.80;74.70;;;;;;6247787;22;20027;-89
2023/05/05 05:02:14;;;;;;;15.00;9.67;;;8.80;74.80;;;;;;6221325;22;20015;-90
2023/05/05 05:04:40;;;;;;;15.10;9.30;;;8.70;74.90;;;;;;6247983;22;20011;-89
2023/05/05 05:07:05;;;;;;;19.60;9.77;;;8.70;75.20;;;;;;6213150;22;20136;-89
2023/05/05 05:09:31;;;;;;;13.47;8.47;;;8.60;75.40;;;;;;6223332;22;20012;-90
2023/05/05 05:12:01;;;;;;;12.87;8.10;;;8.60;75.00;;;;;;6223731;22;20015;-91
2023/05/05 05:14:28;;;;;;;16.10;9.00;;;8.60;75.10;;;;;;6221904;23;20023;-91
2023/05/05 05:16:54;;;;;;;15.10;9.30;;;8.60;75.20;;;;;;6185105;23;20023;-91
2023/05/05 05:19:20;;;;;;;22.40;10.17;;;8.60;75.20;;;;;;6216324;23;20024;-91
2023/05/05 05:21:46;;;;;;;18.00;10.07;;;8.60;75.10;;;;;;6218590;23;20316;-90
2023/05/05 05:24:11;;;;;;;15.27;9.20;;;8.60;75.00;;;;;;6217525;22;20032;-90
2023/05/05 05:26:38;;;;;;;16.33;9.03;;;8.60;75.40;;;;;;6213280;23;20016;-89
2023/05/05 05:29:03;;;;;;;18.53;10.00;;;8.60;75.40;;;;;;6215473;23;20027;-90
2023/05/05 05:31:30;;;;;;;17.17;10.03;;;8.60;75.50;;;;;;6222286;23;20098;-91
2023/05/05 05:33:55;;;;;;;19.17;10.67;;;8.60;76.00;;;;;;6190637;23;20546;-89
2023/05/05 05:36:24;;;;;;;20.63;10.00;;;8.60;76.40;;;;;;6213373;23;20066;-91
2023/05/05 05:38:50;;;;;;;17.60;10.27;;;8.60;76.30;;;;;;6212899;23;20024;-91
2023/05/05 05:41:16;;;;;;;17.00;10.70;;;8.60;76.50;;;;;;6218176;23;20020;-90
2023/05/05 05:43:42;;;;;;;18.33;9.93;;;8.60;76.50;;;;;;6216317;23;20093;-89
2023/05/05 05:46:28;;;;;;;19.07;10.23;;;8.60;76.60;;;;;;6167503;23;20374;-93
2023/05/05 05:49:02;;;;;;;19.03;10.93;;;8.60;77.10;;;;;;6217118;23;20611;-91
2023/05/05 05:51:31;;;;;;;20.27;11.13;;;8.80;77.30;;;;;;6193221;23;20051;-92
2023/05/05 05:54:06;;;;;;;16.20;10.23;;;8.80;77.00;;;;;;6191920;23;20020;-92
2023/05/05 05:56:32;;;;;;;18.17;10.50;;;8.90;76.90;;;;;;6213892;23;20707;-92
2023/05/05 05:58:57;;;;;;;16.67;10.07;;;9.00;76.50;;;;;;6164105;23;20023;-91
2023/05/05 06:01:23;;;;;;;14.17;9.27;;;9.10;76.70;;;;;;6193235;23;20070;-90
2023/05/05 06:03:52;;;;;;;15.43;9.70;;;9.20;76.50;;;;;;6191133;23;20024;-91
2023/05/05 06:06:18;;;;;;;16.10;9.70;;;9.20;76.40;;;;;;6215970;23;20020;-93
2023/05/05 06:08:44;;;;;;;16.00;9.60;;;9.30;76.60;;;;;;6186939;23;20031;-91
2023/05/05 06:11:10;;;;;;;15.80;8.73;;;9.40;76.80;;;;;;6168346;23;20023;-91
2023/05/05 06:13:35;;;;;;;14.40;9.97;;;9.50;76.10;;;;;;6215515;23;20028;-91
2023/05/05 06:16:01;;;;;;;17.50;9.30;;;9.60;75.90;;;;;;6191402;23;20022;-90
2023/05/05 06:18:32;;;;;;;15.63;9.63;;;9.70;75.70;;;;;;6192118;22;20039;-92
2023/05/05 06:20:59;;;;;;;13.38;9.20;;;9.80;75.50;;;;;;6199673;23;20020;-90
2023/05/05 06:23:27;;;;;;;18.47;9.50;;;9.80;75.50;;;;;;6177151;23;20024;-92
2023/05/05 06:25:56;;;;;;;15.23;9.43;;;9.90;75.50;;;;;;6217735;23;20048;-92
2023/05/05 06:28:46;;;;;;;16.27;10.13;;;9.90;75.50;;;;;;6210044;23;20028;-96
2023/05/05 06:31:14;;;;;;;15.73;9.23;;;10.00;75.50;;;;;;6223297;23;20106;-96
2023/05/05 06:33:57;;;;;;;15.68;9.63;;;10.00;75.50;;;;;;6229054;22;20018;-93
2023/05/05 06:36:23;;;;;;;15.40;8.70;;;10.00;75.20;;;;;;6216058;23;20024;-93
2023/05/05 06:38:52;;;;;;;15.80;8.80;;;10.00;75.10;;;;;;6214836;23;20033;-93
2023/05/05 06:41:26;;;;;;;12.77;8.70;;;10.00;75.20;;;;;;6217621;23;20024;-92
2023/05/05 06:43:51;;;;;;;11.87;9.00;;;10.00;75.10;;;;;;6179818;22;20019;-91
2023/05/05 06:46:36;;;;;;;;;;;;;;;;;;;;;
2023/05/05 06:49:17;;;;;;;18.30;8.77;;;10.10;74.70;;;;;;6210868;22;20015;-93
2023/05/05 06:51:43;;;;;;;18.52;8.73;;;10.20;74.90;;;;;;6244000;22;20054;-92
2023/05/05 06:54:12;;;;;;;15.63;9.00;;;10.30;75.00;;;;;;6215668;23;20016;-92
2023/05/05 06:56:44;;;;;;;11.97;8.27;;;10.40;74.90;;;;;;6186842;23;20020;-92
2023/05/05 06:59:15;;;;;;;14.70;8.50;;;10.40;74.40;;;;;;6205787;22;20107;-91
2023/05/05 07:01:44;;;;;;;10.97;8.30;;;10.50;74.60;;;;;;6192297;23;20012;-92
2023/05/05 07:04:20;;;;;;;13.80;8.57;;;10.60;74.70;;;;;;6203798;22;20054;-92
2023/05/05 07:06:54;;;;;;;11.77;8.37;;;10.80;73.40;;;;;;6213106;23;20012;-93
2023/05/05 07:09:20;;;;;;;15.87;8.60;;;10.90;73.40;;;;;;6214209;23;20323;-91
2023/05/05 07:11:48;;;;;;;12.03;8.40;;;11.00;73.10;;;;;;6217141;23;20016;-92
2023/05/05 07:14:14;;;;;;;13.20;8.30;;;11.10;72.80;;;;;;6198646;22;20042;-90
2023/05/05 07:16:45;;;;;;;11.63;7.95;;;11.10;72.20;;;;;;6189640;23;20095;-91
2023/05/05 07:19:11;;;;;;;13.10;7.93;;;11.30;72.50;;;;;;6169294;23;20023;-91
2023/05/05 07:21:46;;;;;;;15.77;9.50;;;11.40;72.50;;;;;;6179280;23;20024;-91
2023/05/05 07:24:12;;;;;;;15.20;8.63;;;11.50;72.20;;;;;;6166925;23;20111;-91
2023/05/05 07:26:38;;;;;;;12.53;8.10;;;11.50;72.40;;;;;;6205018;23;20286;-91
2023/05/05 07:29:06;;;;;;;12.77;9.05;;;11.70;72.00;;;;;;6192021;22;20870;-92
2023/05/05 07:31:32;;;;;;;12.80;8.80;;;11.70;72.00;;;;;;6184225;23;20066;-91
2023/05/05 07:34:27;;;;;;;13.88;8.57;;;11.70;72.20;;;;;;6178912;23;20024;-90
2023/05/05 07:36:55;;;;;;;15.68;8.50;;;11.90;71.80;;;;;;6208720;23;20059;-92
2023/05/05 07:39:26;;;;;;;15.27;9.18;;;11.90;71.70;;;;;;6209359;23;20020;-92
2023/05/05 07:42:05;;;;;;;12.82;9.20;;;12.00;71.70;;;;;;6182765;23;20078;-91
2023/05/05 07:44:37;;;;;;;13.20;9.00;;;12.10;71.70;;;;;;6205046;23;20077;-90
2023/05/05 07:47:15;;;;;;;;;;;;;;;;;;;;;
2023/05/05 07:49:50;;;;;;;14.85;9.05;;;12.20;71.50;;;;;;6161809;23;20218;-90
2023/05/05 07:52:16;;;;;;;14.65;10.05;;;12.30;71.90;;;;;;6206452;22;20016;-92
2023/05/05 07:54:47;;;;;;;11.98;9.07;;;12.50;71.60;;;;;;6205301;23;20023;-91
2023/05/05 07:57:18;;;;;;;16.73;9.05;;;12.50;71.30;;;;;;6162038;22;20091;-92
2023/05/05 07:59:44;;;;;;;16.83;9.10;;;12.70;71.00;;;;;;6207111;23;20016;-90
2023/05/05 08:02:11;;;;;;;13.73;10.30;;;12.80;71.00;;;;;;6205456;22;20091;-90
2023/05/05 08:04:43;;;;;;;15.50;9.50;;;12.90;71.00;;;;;;6207692;23;20667;-93
2023/05/05 08:07:27;;;;;;;;;;;;;;;;;;;;;
2023/05/05 08:09:56;;;;;;;14.70;9.95;;;12.90;70.90;;;;;;6194891;23;20094;-92
2023/05/05 08:12:28;;;;;;;12.60;9.38;;;13.00;70.70;;;;;;6152984;22;20062;-94
2023/05/05 08:14:59;;;;;;;15.43;10.38;;;13.10;70.70;;;;;;6164732;23;20012;-91
2023/05/05 08:17:27;;;;;;;17.33;9.55;;;13.20;70.50;;;;;;6177855;22;20095;-91
2023/05/05 08:20:17;;;;;;;13.40;9.77;;;13.30;70.60;;;;;;6185295;23;20090;-91
2023/05/05 08:23:15;;;;;;;12.77;8.95;;;13.40;70.20;;;;;;6148504;23;20096;-92
2023/05/05 08:25:46;;;;;;;15.85;9.77;;;13.50;70.00;;;;;;6184774;23;20047;-90
2023/05/05 08:28:15;;;;;;;16.33;9.50;;;13.50;70.20;;;;;;6174651;23;20103;-94
2023/05/05 08:30:50;;;;;;;14.88;9.77;;;13.60;70.40;;;;;;6184294;23;20020;-93
2023/05/05 08:33:33;;;;;;;14.27;10.00;;;13.70;70.30;;;;;;6192707;23;20024;-93
2023/05/05 08:36:08;;;;;;;14.65;10.25;;;13.70;70.60;;;;;;6184568;23;20020;-94
2023/05/05 08:38:46;;;;;;;12.20;9.73;;;13.70;70.50;;;;;;6181688;23;20012;-93
2023/05/05 08:41:36;;;;;;;12.10;10.13;;;13.90;70.60;;;;;;6229110;23;20012;-92
2023/05/05 08:44:32;;;;;;;11.75;9.30;;;13.90;70.70;;;;;;6147813;23;20031;-93
2023/05/05 08:47:04;;;;;;;13.63;10.68;;;14.00;70.30;;;;;;6179362;23;20027;-93
2023/05/05 08:49:49;;;;;;;16.38;11.35;;;14.20;70.80;;;;;;6209760;23;20020;-94
2023/05/05 08:52:33;;;;;;;16.08;12.52;;;14.30;70.50;;;;;;6191988;22;20016;-92
2023/05/05 08:55:35;;;;;;;20.35;12.30;;;14.50;70.30;;;;;;6190075;23;20024;-94
2023/05/05 08:58:23;;;;;;;15.40;11.57;;;14.70;69.60;;;;;;6197782;23;20031;-93
2023/05/05 09:01:04;;;;;;;14.75;11.70;;;14.70;70.00;;;;;;6211775;23;20410;-93
2023/05/05 09:04:01;;;;;;;15.52;12.25;;;14.80;69.70;;;;;;6201245;23;20544;-92
2023/05/05 09:06:46;;;;;;;19.73;13.35;;;14.80;69.30;;;;;;6183707;23;20016;-95
2023/05/05 09:09:14;;;;;;;18.55;13.52;;;14.90;68.90;;;;;;6205820;23;20051;-92
2023/05/05 09:11:53;;;;;;;15.20;13.10;;;14.90;69.10;;;;;;6210004;23;20019;-93
2023/05/05 09:14:22;;;;;;;18.30;13.70;;;15.00;69.40;;;;;;6139705;23;20112;-93
2023/05/05 09:17:24;;;;;;;16.58;13.18;;;15.20;69.90;;;;;;6225343;23;20027;-93
2023/05/05 09:20:23;;;;;;;;;;;;;;;;;;;;;
2023/05/05 09:23:44;;;;;;;15.68;13.05;;;15.60;68.80;;;;;;6182633;23;20040;-92
2023/05/05 09:26:43;;;;;;;17.38;14.05;;;15.80;69.10;;;;;;6199296;23;20024;-94
2023/05/05 09:33:06;;;;;;;;;;;;;;;;;;;;;
2023/05/05 09:36:22;;;;;;;16.27;13.98;;;16.00;68.90;;;;;;6171481;23;20096;-93
2023/05/05 09:39:59;;;;;;;17.40;14.23;;;16.10;69.70;;;;;;6125351;23;20064;-93
2023/05/05 09:43:01;;;;;;;16.60;14.10;;;16.40;69.20;;;;;;6005114;23;20023;-94
2023/05/05 09:46:20;;;;;;;20.20;14.27;;;16.50;68.40;;;;;;6059432;23;20085;-94
2023/05/05 09:49:26;;;;;;;17.65;13.80;;;16.40;68.30;;;;;;6072456;23;20109;-94
2023/05/05 09:52:29;;;;;;;;;;;;;;;;;;;;;
2023/05/05 09:56:03;;;;;;;15.73;13.95;;;16.20;69.50;;;;;;6013274;23;20029;-95
2023/05/05 10:02:34;;;;;;;20.70;14.73;;;16.20;69.10;;;;;;6033440;23;20061;-95
2023/05/05 10:09:10;;;;;;;16.95;14.85;;;16.60;70.80;;;;;;5966239;23;20033;-87
2023/05/05 10:11:38;;;;;;;20.63;14.23;;;16.90;70.00;;;;;;6054208;22;20321;-86
2023/05/05 10:14:06;;;;;;;19.65;15.13;;;17.20;69.40;;;;;;6224505;23;20024;-86
2023/05/05 10:16:33;;;;;;;21.48;15.90;;;17.30;69.20;;;;;;6222047;23;20015;-86
2023/05/05 10:19:02;;;;;;;20.95;16.10;;;17.50;69.60;;;;;;6227544;23;20453;-88
2023/05/05 10:21:35;;;;;;;20.92;17.10;;;17.50;69.50;;;;;;6200191;23;20024;-91
2023/05/05 10:24:15;;;;;;;25.08;18.08;;;17.50;68.70;;;;;;6202059;23;20028;-93
2023/05/05 10:27:17;;;;;;;25.27;17.95;;;17.50;69.00;;;;;;6203139;23;20050;-93
2023/05/05 10:30:18;;;;;;;26.10;19.55;;;17.60;68.70;;;;;;6205249;23;20107;-92
2023/05/05 10:36:24;;;;;;;28.02;22.35;;;17.50;68.80;;;;;;6223800;22;20070;-88
2023/05/05 10:39:09;;;;;;;29.17;21.95;;;17.60;68.90;;;;;;6203087;23;20020;-93
2023/05/05 10:41:46;;;;;;;27.88;22.52;;;17.50;68.90;;;;;;6207492;23;20016;-92
2023/05/05 10:44:14;;;;;;;29.20;24.48;;;17.50;68.80;;;;;;6196980;22;20020;-94
2023/05/05 10:46:46;;;;;;;29.35;23.63;;;17.50;69.00;;;;;;6205282;23;20119;-92
2023/05/05 10:49:45;;;;;;;33.95;25.75;;;17.50;69.30;;;;;;6218129;22;20538;-93
2023/05/05 10:53:07;;;;;;;;;;;;;;;;;;;;;
2023/05/05 11:03:40;;;;;;;33.78;23.13;;;18.00;68.40;;;;;;5981613;23;20453;-94
2023/05/05 11:06:56;;;;;;;26.88;20.77;;;18.10;68.70;;;;;;5950241;24;20023;-96
2023/05/05 11:09:28;;;;;;;24.50;19.20;;;18.20;67.10;;;;;;5868729;23;20033;-91
2023/05/05 11:12:40;;;;;;;21.85;17.63;;;18.20;67.20;;;;;;5937384;23;20020;-95
2023/05/05 11:15:49;;;;;;;20.95;16.05;;;18.20;67.70;;;;;;6133679;23;20075;-95
2023/05/05 11:37:43;;;;;;;20.83;16.52;;;18.50;67.30;;;;;;6148784;23;20047;-96
2023/05/05 11:52:25;;;;;;;21.15;15.52;;;18.60;67.50;;;;;;6000379;23;20235;-95
2023/05/05 12:06:51;;;;;;;17.10;12.98;;;18.40;67.80;;;;;;5999965;23;20035;-96
2023/05/05 12:10:12;;;;;;;17.17;12.98;;;18.40;67.60;;;;;;5985511;23;20043;-95
2023/05/05 12:12:43;;;;;;;13.43;9.65;;;18.40;66.60;;;;;;5938003;23;20118;-95
2023/05/05 12:19:10;;;;;;;14.27;10.70;;;18.20;66.70;;;;;;6053223;23;20114;-93
2023/05/05 12:21:37;;;;;;;12.98;10.00;;;18.20;66.00;;;;;;6011702;23;20018;-93
2023/05/05 12:25:00;;;;;;;;;;;;;;;;;;;;;
2023/05/05 12:28:14;;;;;;;13.52;9.20;;;18.10;66.60;;;;;;6119911;23;20179;-93
2023/05/05 12:31:03;;;;;;;11.43;8.23;;;18.10;65.40;;;;;;6117861;23;20128;-95
2023/05/05 12:33:48;;;;;;;13.50;8.90;;;18.10;65.30;;;;;;6105400;23;20025;-96
2023/05/05 12:36:15;;;;;;;11.18;8.35;;;18.00;65.60;;;;;;6148092;23;20591;-91
2023/05/05 12:38:41;;;;;;;13.10;5.75;;;18.00;66.10;;;;;;6120662;23;20316;-95
2023/05/05 12:41:38;;;;;;;9.80;5.85;;;18.00;65.40;;;;;;6147343;23;20088;-94
2023/05/05 12:44:22;;;;;;;10.10;6.28;;;18.00;65.80;;;;;;6078432;23;20061;-94
2023/05/05 12:46:53;;;;;;;13.40;8.88;;;18.00;66.50;;;;;;6119426;23;20017;-96
2023/05/05 12:49:26;;;;;;;11.15;7.93;;;18.00;66.30;;;;;;6142217;23;20648;-94
2023/05/05 12:51:56;;;;;;;14.55;8.55;;;18.00;66.80;;;;;;6129811;22;20019;-93
2023/05/05 12:54:29;;;;;;;8.38;7.00;;;18.00;66.70;;;;;;6211790;22;20112;-93
2023/05/05 12:59:48;;;;;;;10.70;6.60;;;17.80;66.80;;;;;;6203453;22;20116;-92
2023/05/05 13:02:19;;;;;;;9.05;6.20;;;17.70;67.00;;;;;;6210886;22;20221;-93
2023/05/05 13:04:52;;;;;;;16.10;7.03;;;17.60;67.50;;;;;;6186976;22;20016;-95
2023/05/05 13:07:33;;;;;;;13.45;7.43;;;17.50;68.60;;;;;;6187587;22;20409;-95
2023/05/05 13:10:14;;;;;;;14.52;6.88;;;17.40;69.20;;;;;;6173739;22;20023;-96
2023/05/05 13:12:58;;;;;;;12.60;6.32;;;17.20;69.90;;;;;;6215486;22;20037;-95
2023/05/05 13:15:24;;;;;;;22.38;11.70;;;17.10;70.70;;;;;;6214497;22;20085;-95
2023/05/05 13:17:58;;;;;;;17.15;12.27;;;16.90;70.70;;;;;;6206403;22;20027;-95
2023/05/05 13:20:27;;;;;;;18.08;14.02;;;16.70;71.30;;;;;;6211916;22;20515;-94
2023/05/05 13:22:53;;;;;;;19.27;13.68;;;16.60;71.60;;;;;;6184982;22;20020;-93
2023/05/05 13:25:39;;;;;;;19.08;13.52;;;16.50;72.00;;;;;;6188698;22;20110;-95
2023/05/05 13:28:07;;;;;;;18.65;13.07;;;16.40;72.50;;;;;;6185696;22;20043;-94
2023/05/05 13:30:46;;;;;;;19.10;13.48;;;16.20;72.80;;;;;;6212945;22;20022;-96
2023/05/05 13:33:20;;;;;;;23.90;13.80;;;16.20;72.90;;;;;;6189668;22;20079;-96
2023/05/05 13:35:51;;;;;;;16.50;12.02;;;16.10;73.40;;;;;;6214351;22;20480;-96
2023/05/05 13:38:23;;;;;;;21.08;12.45;;;16.00;73.50;;;;;;6186054;22;20024;-95
2023/05/05 13:40:52;;;;;;;;;;;15.90;74.10;;;;;;6187899;22;20022;-95
2023/05/05 13:43:18;;;;;;;18.02;11.57;;;15.60;74.70;;;;;;6172953;22;19973;-94
2023/05/05 13:45:44;;;;;;;11.05;9.05;;;15.50;74.10;;;;;;6214524;22;20446;-92
2023/05/05 13:48:10;;;;;;;12.55;9.15;;;15.40;74.00;;;;;;6154915;22;20727;-93
2023/05/05 13:50:44;;;;;;;12.88;9.88;;;15.30;74.00;;;;;;6212936;22;20019;-95
2023/05/05 13:54:18;;;;;;;13.50;9.85;;;15.20;74.10;;;;;;6184276;23;20695;-96
2023/05/05 13:57:26;;;;;;;17.90;11.50;;;15.00;75.50;;;;;;6112262;23;20017;-96
2023/05/05 14:03:50;;;;;;;17.45;12.05;;;14.70;76.70;;;;;;6113158;22;20128;-95
2023/05/05 14:06:37;;;;;;;17.52;13.02;;;14.50;76.30;;;;;;6230002;22;20735;-96
2023/05/05 14:09:11;;;;;;;19.45;12.68;;;14.40;76.60;;;;;;6209870;22;20031;-95
2023/05/05 14:11:40;;;;;;;16.15;11.15;;;14.40;76.90;;;;;;6188503;22;20032;-96
2023/05/05 14:14:06;;;;;;;18.98;10.15;;;14.20;77.00;;;;;;6209437;22;20078;-90
2023/05/05 14:16:32;;;;;;;14.70;10.93;;;14.00;77.30;;;;;;6205241;22;20016;-95
2023/05/05 14:19:07;;;;;;;14.93;10.40;;;13.90;77.20;;;;;;6209835;22;20023;-96
2023/05/05 14:21:36;;;;;;;19.10;10.18;;;13.90;77.40;;;;;;6211217;22;20120;-95
2023/05/05 14:24:30;;;;;;;13.55;8.52;;;13.70;77.50;;;;;;6169316;23;20079;-94
2023/05/05 14:26:56;;;;;;;15.27;8.70;;;13.60;78.30;;;;;;6178100;22;20015;-91
2023/05/05 14:29:24;;;;;;;10.95;7.63;;;13.50;77.80;;;;;;6184299;22;20022;-92
2023/05/05 14:31:50;;;;;;;13.23;8.30;;;13.50;78.20;;;;;;6211229;22;20025;-93
2023/05/05 14:34:19;;;;;;;16.60;8.57;;;13.40;78.10;;;;;;6210326;22;20020;-93
2023/05/05 14:36:47;;;;;;;11.57;8.98;;;13.30;78.40;;;;;;6155108;22;20403;-93
2023/05/05 14:39:16;;;;;;;13.40;8.40;;;13.30;78.90;;;;;;6210573;22;20019;-92
2023/05/05 14:42:02;;;;;;;13.00;8.80;;;13.30;78.50;;;;;;6194905;22;20019;-95
2023/05/05 14:44:40;;;;;;;15.50;8.80;;;13.30;78.70;;;;;;6131318;22;20020;-94
2023/05/05 14:47:06;;;;;;;15.13;8.40;;;13.20;78.70;;;;;;6204653;22;20072;-94
2023/05/05 14:49:35;;;;;;;12.05;8.40;;;13.10;78.90;;;;;;6210399;22;20161;-95
2023/05/05 14:52:02;;;;;;;12.13;7.80;;;13.10;79.30;;;;;;6188128;22;20023;-92